Time;durP1;ratioP1;P1;durP2;ratioP2;P2;SDS_P1;SDS_P2;PMS_P1;PMS_P2;Temp;Humidity;BMP_temperature;BMP_pressure;BME280_temperature;BME280_humidity;BME280_pressure;Samples;Min_cycle;Max_cycle;Signal;HPM_P1;HPM_P2
2022/03/29 00:01:15;;;;;;;24.63;11.13;;;;;;;;;;4896793;28;20044;-76
2022/03/29 00:03:40;;;;;;;22.27;10.38;;;;;;;;;;4892817;28;20485;-77
2022/03/29 00:06:06;;;;;;;24.50;10.85;;;;;;;;;;4895370;28;20753;-77
2022/03/29 00:08:34;;;;;;;29.95;11.23;;;;;;;;;;4892580;28;20228;-77
2022/03/29 00:10:59;;;;;;;25.98;11.43;;;;;;;;;;4888218;28;20055;-77
2022/03/29 00:13:24;;;;;;;23.65;11.27;;;;;;;;;;4905483;28;20735;-76
2022/03/29 00:15:50;;;;;;;25.40;10.93;;;;;;;;;;4897864;28;21752;-76
2022/03/29 00:18:16;;;;;;;21.50;10.55;;;;;;;;;;4888788;28;20416;-78
2022/03/29 00:20:41;;;;;;;26.38;10.10;;;;;;;;;;4892752;28;22043;-77
2022/03/29 00:23:07;;;;;;;21.73;10.07;;;;;;;;;;4892672;28;20038;-78
2022/03/29 00:25:35;;;;;;;21.83;9.93;;;;;;;;;;4889775;28;20203;-77
2022/03/29 00:28:01;;;;;;;26.05;10.98;;;;;;;;;;4895120;28;21256;-77
2022/03/29 00:30:26;;;;;;;24.65;10.55;;;;;;;;;;4891333;28;20045;-78
2022/03/29 00:32:51;;;;;;;22.70;10.07;;;;;;;;;;4889502;28;20045;-77
2022/03/29 00:35:24;;;;;;;20.23;9.70;;;;;;;;;;4890080;28;20041;-77
2022/03/29 00:37:53;;;;;;;25.70;9.98;;;;;;;;;;4908431;28;20487;-77
2022/03/29 00:40:19;;;;;;;23.33;10.40;;;;;;;;;;4898471;28;20041;-77
2022/03/29 00:42:44;;;;;;;23.42;9.88;;;;;;;;;;4899272;28;20482;-77
2022/03/29 00:45:10;;;;;;;23.90;10.93;;;;;;;;;;4895379;28;20070;-77
2022/03/29 00:47:36;;;;;;;26.50;10.02;;;;;;;;;;4893144;28;20038;-77
2022/03/29 00:50:02;;;;;;;26.38;10.90;;;;;;;;;;4892522;28;20595;-77
2022/03/29 00:52:28;;;;;;;24.20;10.70;;;;;;;;;;4901932;28;20133;-76
2022/03/29 00:54:54;;;;;;;23.08;9.73;;;;;;;;;;4889990;28;20033;-76
2022/03/29 00:57:19;;;;;;;23.15;9.30;;;;;;;;;;4892758;28;20034;-76
2022/03/29 00:59:46;;;;;;;22.55;10.40;;;;;;;;;;4891508;28;20045;-77
2022/03/29 01:02:12;;;;;;;17.95;9.68;;;;;;;;;;4900148;28;20042;-77
2022/03/29 01:04:38;;;;;;;22.65;10.32;;;;;;;;;;4893219;28;20937;-77
2022/03/29 01:07:04;;;;;;;28.52;11.57;;;;;;;;;;4890899;28;20038;-77
2022/03/29 01:09:30;;;;;;;22.52;10.32;;;;;;;;;;4897541;28;21676;-76
2022/03/29 01:11:57;;;;;;;23.58;10.70;;;;;;;;;;4892161;28;20069;-77
2022/03/29 01:14:27;;;;;;;24.33;10.50;;;;;;;;;;4909091;28;20153;-77
2022/03/29 01:19:38;;;;;;;24.27;10.38;;;;;;;;;;4890802;28;20784;-76
2022/03/29 01:22:09;;;;;;;23.35;10.05;;;;;;;;;;4888160;28;20053;-76
2022/03/29 01:24:43;;;;;;;21.75;10.40;;;;;;;;;;4897533;28;20031;-76
2022/03/29 01:27:12;;;;;;;18.83;9.68;;;;;;;;;;4888705;28;20035;-76
2022/03/29 01:29:39;;;;;;;25.85;10.93;;;;;;;;;;4887683;28;20041;-76
2022/03/29 01:32:08;;;;;;;25.63;10.77;;;;;;;;;;4892079;28;20104;-76
2022/03/29 01:34:41;;;;;;;23.10;10.70;;;;;;;;;;4895387;28;20042;-77
2022/03/29 01:37:07;;;;;;;26.63;11.57;;;;;;;;;;4905881;28;20042;-77
2022/03/29 01:39:36;;;;;;;26.65;11.32;;;;;;;;;;4893242;28;20954;-78
2022/03/29 01:42:03;;;;;;;21.02;10.00;;;;;;;;;;4892266;28;20034;-77
2022/03/29 01:44:31;;;;;;;23.80;10.38;;;;;;;;;;4893521;28;20052;-77
2022/03/29 01:46:57;;;;;;;24.08;10.38;;;;;;;;;;4894065;28;20031;-77
2022/03/29 01:49:22;;;;;;;23.83;10.68;;;;;;;;;;4894709;28;20042;-78
2022/03/29 01:51:49;;;;;;;27.08;11.85;;;;;;;;;;4894164;28;20043;-78
2022/03/29 01:54:14;;;;;;;23.20;10.80;;;;;;;;;;4890846;28;20038;-77
2022/03/29 01:56:40;;;;;;;23.13;10.90;;;;;;;;;;4890037;28;20161;-77
2022/03/29 01:59:07;;;;;;;20.42;9.70;;;;;;;;;;4890320;28;20046;-77
2022/03/29 02:01:43;;;;;;;25.73;11.50;;;;;;;;;;4896608;28;21472;-77
2022/03/29 02:04:12;;;;;;;21.15;10.82;;;;;;;;;;4890026;28;20169;-77
2022/03/29 02:06:37;;;;;;;23.10;10.48;;;;;;;;;;4893407;28;20061;-78
2022/03/29 02:09:04;;;;;;;27.73;11.65;;;;;;;;;;4895157;28;20133;-77
2022/03/29 02:11:29;;;;;;;24.92;10.00;;;;;;;;;;4896293;28;20034;-77
2022/03/29 02:13:55;;;;;;;23.90;10.30;;;;;;;;;;4895284;28;20288;-77
2022/03/29 02:16:21;;;;;;;21.90;9.98;;;;;;;;;;4898380;28;20166;-77
2022/03/29 02:18:46;;;;;;;23.27;11.52;;;;;;;;;;4892328;28;21199;-78
2022/03/29 02:21:16;;;;;;;27.92;11.20;;;;;;;;;;4896971;28;21139;-78
2022/03/29 02:23:42;;;;;;;25.52;11.45;;;;;;;;;;4894939;28;20037;-77
2022/03/29 02:26:07;;;;;;;25.48;11.98;;;;;;;;;;4898399;28;20499;-77
2022/03/29 02:28:34;;;;;;;24.55;10.07;;;;;;;;;;4927077;28;20726;-77
2022/03/29 02:31:01;;;;;;;28.02;11.85;;;;;;;;;;4901035;28;21467;-77
2022/03/29 02:33:27;;;;;;;27.35;11.73;;;;;;;;;;4895249;28;20543;-77
2022/03/29 02:35:52;;;;;;;27.08;11.75;;;;;;;;;;4892735;28;20045;-77
2022/03/29 02:38:20;;;;;;;29.60;12.90;;;;;;;;;;4896809;28;21469;-77
2022/03/29 02:40:46;;;;;;;28.50;13.00;;;;;;;;;;4895075;28;20046;-77
2022/03/29 02:43:11;;;;;;;27.67;13.15;;;;;;;;;;4893385;28;20756;-77
2022/03/29 02:45:37;;;;;;;28.60;11.93;;;;;;;;;;4897513;28;20433;-77
2022/03/29 02:48:03;;;;;;;27.48;10.73;;;;;;;;;;4894749;28;20903;-78
2022/03/29 02:50:28;;;;;;;24.48;10.88;;;;;;;;;;4895128;28;20033;-77
2022/03/29 02:52:56;;;;;;;23.95;11.10;;;;;;;;;;4894617;28;20847;-77
2022/03/29 02:55:27;;;;;;;27.60;11.02;;;;;;;;;;4895034;28;20208;-77
2022/03/29 02:57:53;;;;;;;27.30;10.70;;;;;;;;;;4888318;28;20043;-77
2022/03/29 03:00:20;;;;;;;32.22;11.88;;;;;;;;;;4899802;28;21052;-77
2022/03/29 03:02:50;;;;;;;28.05;10.77;;;;;;;;;;4894164;28;20375;-77
2022/03/29 03:05:17;;;;;;;28.33;11.98;;;;;;;;;;4894555;28;21233;-78
2022/03/29 03:07:44;;;;;;;26.23;12.57;;;;;;;;;;4898076;28;20035;-77
2022/03/29 03:10:11;;;;;;;31.27;12.38;;;;;;;;;;4893009;28;20034;-78
2022/03/29 03:12:41;;;;;;;28.50;12.07;;;;;;;;;;4894610;28;20860;-78
2022/03/29 03:15:07;;;;;;;;;;;;;;;;;;4893697;28;21819;-78
2022/03/29 03:17:32;;;;;;;32.95;12.73;;;;;;;;;;4896574;28;20011;-78
2022/03/29 03:19:58;;;;;;;28.67;12.45;;;;;;;;;;4896750;28;21196;-77
2022/03/29 03:22:24;;;;;;;26.55;11.45;;;;;;;;;;4896076;28;21145;-77
2022/03/29 03:24:50;;;;;;;31.80;12.25;;;;;;;;;;4896333;28;20066;-77
2022/03/29 03:27:16;;;;;;;30.48;12.90;;;;;;;;;;4894729;28;20047;-77
2022/03/29 03:29:42;;;;;;;27.48;12.05;;;;;;;;;;4894113;28;20734;-78
2022/03/29 03:32:08;;;;;;;37.95;12.10;;;;;;;;;;4894748;28;20064;-77
2022/03/29 03:34:34;;;;;;;36.65;12.90;;;;;;;;;;4894552;28;20065;-77
2022/03/29 03:37:02;;;;;;;30.02;13.25;;;;;;;;;;4890321;28;20066;-77
2022/03/29 03:39:38;;;;;;;30.15;12.90;;;;;;;;;;4892931;28;21015;-77
2022/03/29 03:42:05;;;;;;;35.78;13.43;;;;;;;;;;4909488;28;21318;-77
2022/03/29 03:44:32;;;;;;;33.38;14.25;;;;;;;;;;4892059;28;20050;-77
2022/03/29 03:47:00;;;;;;;33.78;13.82;;;;;;;;;;4892385;28;20042;-77
2022/03/29 03:49:25;;;;;;;43.70;15.63;;;;;;;;;;4891625;28;20050;-77
2022/03/29 03:51:51;;;;;;;33.33;13.38;;;;;;;;;;4894043;28;20168;-77
2022/03/29 03:54:16;;;;;;;33.38;13.75;;;;;;;;;;4893394;28;20164;-77
2022/03/29 03:56:42;;;;;;;35.83;13.05;;;;;;;;;;4894756;28;20043;-78
2022/03/29 03:59:09;;;;;;;32.05;14.70;;;;;;;;;;4895691;28;20038;-78
2022/03/29 04:01:35;;;;;;;32.22;13.63;;;;;;;;;;4906473;28;20077;-77
2022/03/29 04:04:00;;;;;;;35.22;13.55;;;;;;;;;;4893619;28;20101;-77
2022/03/29 04:06:26;;;;;;;30.63;14.35;;;;;;;;;;4892795;28;20864;-77
2022/03/29 04:08:51;;;;;;;32.67;14.32;;;;;;;;;;4906115;28;20765;-77
2022/03/29 04:11:18;;;;;;;32.08;13.40;;;;;;;;;;4892542;28;20509;-77
2022/03/29 04:13:45;;;;;;;29.52;12.80;;;;;;;;;;4890870;28;20045;-78
2022/03/29 04:16:11;;;;;;;34.95;13.60;;;;;;;;;;4891615;28;20044;-77
2022/03/29 04:18:39;;;;;;;30.92;12.75;;;;;;;;;;4891820;28;20729;-77
2022/03/29 04:21:06;;;;;;;33.05;12.15;;;;;;;;;;4894205;28;20084;-77
2022/03/29 04:23:38;;;;;;;38.90;13.07;;;;;;;;;;4891976;28;22421;-77
2022/03/29 04:26:04;;;;;;;33.22;13.77;;;;;;;;;;4891841;28;20738;-78
2022/03/29 04:28:31;;;;;;;35.78;13.68;;;;;;;;;;4890762;28;20045;-77
2022/03/29 04:30:59;;;;;;;32.55;15.00;;;;;;;;;;4890160;28;20103;-77
2022/03/29 04:33:28;;;;;;;35.42;14.25;;;;;;;;;;4893689;28;20168;-77
2022/03/29 04:35:54;;;;;;;30.65;12.82;;;;;;;;;;4890616;28;20042;-77
2022/03/29 04:38:20;;;;;;;28.65;12.63;;;;;;;;;;4896925;28;20140;-77
2022/03/29 04:40:45;;;;;;;35.13;14.02;;;;;;;;;;4893306;28;20483;-77
2022/03/29 04:43:11;;;;;;;29.50;13.23;;;;;;;;;;4893180;28;20038;-77
2022/03/29 04:45:36;;;;;;;30.98;12.40;;;;;;;;;;4892467;28;20042;-77
2022/03/29 04:48:03;;;;;;;32.05;13.82;;;;;;;;;;4894628;28;20043;-76
2022/03/29 04:50:29;;;;;;;29.65;12.27;;;;;;;;;;4898748;28;21077;-77
2022/03/29 04:52:55;;;;;;;32.60;13.02;;;;;;;;;;4895428;28;20735;-76
2022/03/29 04:55:20;;;;;;;31.83;12.77;;;;;;;;;;4892567;28;20076;-77
2022/03/29 04:57:48;;;;;;;27.33;11.05;;;;;;;;;;4889754;28;20037;-77
2022/03/29 05:00:16;;;;;;;29.13;12.20;;;;;;;;;;4902467;28;20029;-78
2022/03/29 05:02:43;;;;;;;33.80;13.32;;;;;;;;;;4895473;28;20472;-77
2022/03/29 05:05:10;;;;;;;36.63;14.07;;;;;;;;;;4896214;28;21853;-77
2022/03/29 05:07:36;;;;;;;34.60;14.65;;;;;;;;;;4896229;28;20113;-77
2022/03/29 05:10:06;;;;;;;37.53;14.50;;;;;;;;;;4892935;28;21710;-75
2022/03/29 05:12:38;;;;;;;34.83;14.13;;;;;;;;;;4904858;28;20038;-75
2022/03/29 05:15:07;;;;;;;32.25;13.25;;;;;;;;;;4889998;28;20702;-76
2022/03/29 05:17:34;;;;;;;36.38;14.15;;;;;;;;;;4894494;28;20042;-75
2022/03/29 05:20:00;;;;;;;32.00;13.38;;;;;;;;;;4893376;28;20703;-76
2022/03/29 05:22:25;;;;;;;27.05;12.48;;;;;;;;;;4911708;28;20966;-77
2022/03/29 05:24:53;;;;;;;25.50;11.82;;;;;;;;;;4913450;28;20824;-77
2022/03/29 05:27:20;;;;;;;36.28;12.90;;;;;;;;;;4894470;28;20038;-77
2022/03/29 05:29:46;;;;;;;31.38;12.75;;;;;;;;;;4902070;28;20127;-76
2022/03/29 05:32:14;;;;;;;34.15;14.27;;;;;;;;;;4888157;28;20658;-76
2022/03/29 05:34:39;;;;;;;42.60;16.85;;;;;;;;;;4889891;28;20102;-76
2022/03/29 05:37:05;;;;;;;45.78;20.45;;;;;;;;;;4889502;28;20576;-76
2022/03/29 05:39:30;;;;;;;49.08;19.30;;;;;;;;;;4888364;28;20090;-76
2022/03/29 05:41:55;;;;;;;47.20;18.15;;;;;;;;;;4890626;28;20657;-77
2022/03/29 05:44:21;;;;;;;42.78;19.65;;;;;;;;;;4906809;28;20450;-76
2022/03/29 05:49:33;;;;;;;40.88;18.20;;;;;;;;;;4885516;28;20558;-76
2022/03/29 05:51:59;;;;;;;42.25;17.75;;;;;;;;;;4878853;28;20062;-76
2022/03/29 05:54:24;;;;;;;41.42;18.52;;;;;;;;;;4868615;28;20038;-76
2022/03/29 05:56:50;;;;;;;47.78;18.80;;;;;;;;;;4892176;28;20088;-75
2022/03/29 05:59:15;;;;;;;46.50;17.25;;;;;;;;;;4886946;28;20137;-76
2022/03/29 06:01:41;;;;;;;38.05;17.70;;;;;;;;;;4889614;28;21748;-76
2022/03/29 06:04:09;;;;;;;37.67;16.88;;;;;;;;;;4891836;28;20153;-76
2022/03/29 06:06:38;;;;;;;38.42;17.02;;;;;;;;;;4891389;28;20037;-76
2022/03/29 06:09:04;;;;;;;31.77;16.10;;;;;;;;;;4888785;28;20545;-76
2022/03/29 06:11:30;;;;;;;36.20;17.40;;;;;;;;;;4886631;28;20046;-76
2022/03/29 06:13:56;;;;;;;36.47;16.98;;;;;;;;;;4885177;28;20080;-76
2022/03/29 06:16:21;;;;;;;42.75;16.58;;;;;;;;;;4887352;28;20784;-76
2022/03/29 06:18:47;;;;;;;36.85;17.85;;;;;;;;;;4900842;28;20035;-76
2022/03/29 06:21:12;;;;;;;35.45;16.35;;;;;;;;;;4885148;28;20038;-76
2022/03/29 06:23:38;;;;;;;36.05;16.95;;;;;;;;;;4892105;28;20807;-75
2022/03/29 06:26:04;;;;;;;38.55;17.35;;;;;;;;;;4888795;28;21414;-75
2022/03/29 06:28:30;;;;;;;39.90;17.23;;;;;;;;;;4888231;28;20990;-76
2022/03/29 06:30:56;;;;;;;38.63;17.73;;;;;;;;;;4881958;28;20445;-75
2022/03/29 06:33:22;;;;;;;40.95;17.48;;;;;;;;;;4907336;28;20037;-76
2022/03/29 06:35:49;;;;;;;43.58;17.65;;;;;;;;;;4894134;28;20045;-74
2022/03/29 06:38:21;;;;;;;39.72;19.65;;;;;;;;;;4890413;28;20367;-75
2022/03/29 06:40:50;;;;;;;41.85;17.00;;;;;;;;;;4896224;28;21371;-75
2022/03/29 06:43:16;;;;;;;43.63;17.65;;;;;;;;;;4895219;28;20045;-74
2022/03/29 06:45:41;;;;;;;41.60;17.30;;;;;;;;;;4891554;28;21373;-74
2022/03/29 06:48:07;;;;;;;34.53;17.77;;;;;;;;;;4893985;28;20043;-77
2022/03/29 06:50:33;;;;;;;41.22;18.00;;;;;;;;;;4894398;28;20291;-74
2022/03/29 06:52:59;;;;;;;49.15;20.90;;;;;;;;;;4892005;28;20576;-75
2022/03/29 06:55:26;;;;;;;49.35;22.13;;;;;;;;;;4892054;28;20090;-75
2022/03/29 06:57:52;;;;;;;36.65;16.92;;;;;;;;;;4890612;28;20539;-75
2022/03/29 07:00:17;;;;;;;50.50;16.38;;;;;;;;;;4888776;28;20042;-75
2022/03/29 07:02:47;;;;;;;40.80;15.60;;;;;;;;;;4893980;28;20125;-75
2022/03/29 07:05:14;;;;;;;37.83;17.35;;;;;;;;;;4888580;28;20085;-75
2022/03/29 07:07:42;;;;;;;31.92;15.15;;;;;;;;;;4907219;28;20034;-75
2022/03/29 07:12:59;;;;;;;34.60;14.63;;;;;;;;;;4893482;28;20049;-74
2022/03/29 07:15:25;;;;;;;33.35;16.42;;;;;;;;;;4898106;28;20622;-75
2022/03/29 07:17:51;;;;;;;34.05;14.60;;;;;;;;;;4892616;28;20039;-74
2022/03/29 07:20:19;;;;;;;31.90;14.98;;;;;;;;;;4892801;28;20576;-74
2022/03/29 07:22:45;;;;;;;29.38;14.70;;;;;;;;;;4892215;28;20934;-74
2022/03/29 07:25:11;;;;;;;31.52;14.50;;;;;;;;;;4891645;28;21491;-75
2022/03/29 07:27:37;;;;;;;32.60;14.70;;;;;;;;;;4906845;28;20689;-75
2022/03/29 07:30:05;;;;;;;42.35;15.90;;;;;;;;;;4893067;28;20030;-76
2022/03/29 07:32:30;;;;;;;33.05;14.32;;;;;;;;;;4892230;28;20057;-75
2022/03/29 07:34:56;;;;;;;32.42;15.85;;;;;;;;;;4891564;28;20662;-74
2022/03/29 07:37:23;;;;;;;37.45;16.98;;;;;;;;;;4889669;28;20038;-75
2022/03/29 07:39:53;;;;;;;35.38;16.40;;;;;;;;;;4886699;28;21341;-75
2022/03/29 07:42:25;;;;;;;39.95;17.25;;;;;;;;;;4895582;28;20670;-75
2022/03/29 07:44:50;;;;;;;40.10;17.38;;;;;;;;;;4893231;28;20864;-75
2022/03/29 07:47:19;;;;;;;37.60;17.10;;;;;;;;;;4903425;28;20734;-76
2022/03/29 07:49:45;;;;;;;35.30;17.30;;;;;;;;;;4891631;28;21116;-75
2022/03/29 07:52:14;;;;;;;37.53;17.20;;;;;;;;;;4902386;28;20423;-74
2022/03/29 07:54:40;;;;;;;39.88;16.92;;;;;;;;;;4890875;28;21629;-75
2022/03/29 07:57:08;;;;;;;38.85;17.52;;;;;;;;;;4890278;28;21337;-76
2022/03/29 07:59:35;;;;;;;39.67;16.35;;;;;;;;;;4890034;28;21713;-75
2022/03/29 08:02:01;;;;;;;35.42;15.95;;;;;;;;;;4905304;28;22338;-76
2022/03/29 08:04:28;;;;;;;30.40;14.98;;;;;;;;;;4889358;28;20034;-75
2022/03/29 08:06:54;;;;;;;34.67;15.10;;;;;;;;;;4891876;28;21551;-76
2022/03/29 08:09:19;;;;;;;33.92;15.93;;;;;;;;;;4893518;28;20164;-76
2022/03/29 08:11:45;;;;;;;33.67;16.15;;;;;;;;;;4890834;28;20372;-76
2022/03/29 08:14:12;;;;;;;38.63;17.00;;;;;;;;;;4905780;28;20057;-76
2022/03/29 08:16:41;;;;;;;40.90;17.83;;;;;;;;;;4896966;28;20512;-76
2022/03/29 08:19:07;;;;;;;34.75;16.65;;;;;;;;;;4896279;28;20153;-75
2022/03/29 08:21:50;;;;;;;39.55;16.08;;;;;;;;;;4889255;28;20853;-75
2022/03/29 08:24:24;;;;;;;36.28;15.98;;;;;;;;;;4888586;28;20116;-76
2022/03/29 08:26:53;;;;;;;38.40;16.48;;;;;;;;;;4902307;28;20365;-74
2022/03/29 08:29:21;;;;;;;30.85;14.43;;;;;;;;;;4903947;28;21588;-75
2022/03/29 08:31:52;;;;;;;31.10;13.95;;;;;;;;;;4897968;28;20050;-75
2022/03/29 08:34:17;;;;;;;33.60;15.35;;;;;;;;;;4898788;28;20034;-76
2022/03/29 08:36:43;;;;;;;34.78;16.95;;;;;;;;;;4899266;28;20043;-76
2022/03/29 08:39:10;;;;;;;35.45;15.93;;;;;;;;;;4900087;28;20662;-77
2022/03/29 08:41:45;;;;;;;32.38;14.88;;;;;;;;;;4910077;28;20212;-76
2022/03/29 08:44:13;;;;;;;35.45;16.52;;;;;;;;;;4898070;28;20066;-76
2022/03/29 08:46:41;;;;;;;39.60;16.92;;;;;;;;;;4894646;28;20255;-77
2022/03/29 08:49:07;;;;;;;31.85;16.60;;;;;;;;;;4897415;28;20037;-77
2022/03/29 08:51:38;;;;;;;32.47;15.15;;;;;;;;;;4890228;28;20038;-76
2022/03/29 08:54:04;;;;;;;28.75;15.55;;;;;;;;;;4889749;28;20161;-75
2022/03/29 08:56:30;;;;;;;28.67;15.02;;;;;;;;;;4888774;28;20749;-75
2022/03/29 08:58:56;;;;;;;30.30;13.63;;;;;;;;;;4889329;28;20180;-76
2022/03/29 09:01:25;;;;;;;31.08;13.85;;;;;;;;;;4887135;28;20765;-76
2022/03/29 09:04:09;;;;;;;30.67;13.65;;;;;;;;;;4885656;28;20132;-77
2022/03/29 09:06:56;;;;;;;32.28;13.02;;;;;;;;;;4896205;28;21250;-74
2022/03/29 09:09:35;;;;;;;28.80;14.27;;;;;;;;;;4892487;28;20033;-73
2022/03/29 09:12:17;;;;;;;34.65;15.38;;;;;;;;;;4893839;28;20544;-75
2022/03/29 09:14:54;;;;;;;36.90;16.42;;;;;;;;;;4896134;28;20033;-75
2022/03/29 09:17:35;;;;;;;28.65;13.98;;;;;;;;;;4896944;28;20084;-75
2022/03/29 09:20:04;;;;;;;30.80;14.15;;;;;;;;;;4896569;28;20045;-74
2022/03/29 09:22:42;;;;;;;33.55;13.98;;;;;;;;;;4880276;28;20414;-75
2022/03/29 09:25:12;;;;;;;34.10;15.65;;;;;;;;;;4891928;28;20639;-74
2022/03/29 09:28:03;;;;;;;28.55;14.60;;;;;;;;;;4898126;28;20077;-74
2022/03/29 09:30:44;;;;;;;27.55;14.10;;;;;;;;;;4898451;28;20725;-74
2022/03/29 09:33:12;;;;;;;31.75;13.75;;;;;;;;;;4894652;28;20161;-74
2022/03/29 09:35:56;;;;;;;33.42;14.75;;;;;;;;;;4889002;28;21201;-76
2022/03/29 09:38:29;;;;;;;31.05;15.15;;;;;;;;;;4892639;28;20580;-74
2022/03/29 09:40:56;;;;;;;30.65;14.82;;;;;;;;;;4896209;28;20846;-75
2022/03/29 09:43:24;;;;;;;26.33;13.48;;;;;;;;;;4900751;28;21093;-75
2022/03/29 09:45:53;;;;;;;31.17;15.40;;;;;;;;;;4895103;28;20043;-75
2022/03/29 09:48:38;;;;;;;30.00;14.52;;;;;;;;;;4892793;28;21091;-74
2022/03/29 09:51:16;;;;;;;29.05;14.65;;;;;;;;;;4904108;28;20265;-75
2022/03/29 09:53:51;;;;;;;33.78;14.35;;;;;;;;;;4892873;28;20034;-74
2022/03/29 09:56:24;;;;;;;27.20;13.80;;;;;;;;;;4909313;28;20611;-74
2022/03/29 09:59:08;;;;;;;28.52;14.05;;;;;;;;;;4898272;28;20038;-74
2022/03/29 10:01:55;;;;;;;30.33;15.63;;;;;;;;;;4897733;28;20042;-74
2022/03/29 10:04:23;;;;;;;27.98;15.40;;;;;;;;;;4916197;28;20047;-75
2022/03/29 10:06:50;;;;;;;27.88;15.00;;;;;;;;;;4908244;28;20573;-74
2022/03/29 10:09:27;;;;;;;30.70;14.43;;;;;;;;;;4900073;28;20053;-75
2022/03/29 10:11:57;;;;;;;28.23;14.90;;;;;;;;;;4900873;28;20367;-74
2022/03/29 10:14:25;;;;;;;29.13;15.35;;;;;;;;;;4896687;28;20132;-74
2022/03/29 10:16:52;;;;;;;29.88;15.43;;;;;;;;;;4894835;28;20037;-75
2022/03/29 10:19:19;;;;;;;24.92;15.07;;;;;;;;;;4890813;28;20641;-74
2022/03/29 10:21:46;;;;;;;28.98;14.25;;;;;;;;;;4890174;28;20351;-75
2022/03/29 10:24:17;;;;;;;27.67;14.55;;;;;;;;;;4908806;28;20034;-74
2022/03/29 10:26:44;;;;;;;26.50;13.93;;;;;;;;;;4896603;28;21759;-75
2022/03/29 10:29:13;;;;;;;30.45;15.05;;;;;;;;;;4899062;28;20631;-76
2022/03/29 10:31:49;;;;;;;27.42;14.65;;;;;;;;;;4889799;28;20073;-76
2022/03/29 10:34:39;;;;;;;28.58;14.68;;;;;;;;;;4895659;28;20153;-76
2022/03/29 10:37:11;;;;;;;26.50;14.85;;;;;;;;;;4913588;28;20658;-76
2022/03/29 10:39:50;;;;;;;28.60;14.68;;;;;;;;;;4899052;28;20031;-76
2022/03/29 10:42:46;;;;;;;32.03;15.35;;;;;;;;;;4898355;28;20035;-76
2022/03/29 10:45:23;;;;;;;29.67;15.20;;;;;;;;;;4897548;28;20038;-75
2022/03/29 10:48:05;;;;;;;25.50;13.95;;;;;;;;;;4894778;28;20045;-76
2022/03/29 10:50:57;;;;;;;28.42;14.35;;;;;;;;;;4897023;28;20043;-75
2022/03/29 10:53:28;;;;;;;23.98;14.02;;;;;;;;;;4899240;28;20473;-75
2022/03/29 10:56:27;;;;;;;26.23;13.00;;;;;;;;;;4894599;28;20061;-74
2022/03/29 10:59:02;;;;;;;25.88;14.30;;;;;;;;;;4874100;28;20050;-75
2022/03/29 11:01:28;;;;;;;28.95;14.75;;;;;;;;;;4894106;28;20260;-75
2022/03/29 11:04:26;;;;;;;28.20;14.23;;;;;;;;;;4911928;28;20038;-75
2022/03/29 11:07:14;;;;;;;25.08;14.07;;;;;;;;;;4898920;28;20030;-74
2022/03/29 11:09:41;;;;;;;22.05;13.38;;;;;;;;;;4893219;28;20681;-74
2022/03/29 11:12:26;;;;;;;30.13;13.90;;;;;;;;;;4899522;28;20603;-75
2022/03/29 11:14:54;;;;;;;25.90;14.65;;;;;;;;;;4892703;28;20034;-75
2022/03/29 11:17:21;;;;;;;27.13;14.88;;;;;;;;;;4892217;28;20033;-74
2022/03/29 11:19:49;;;;;;;26.48;14.75;;;;;;;;;;4891655;28;20731;-75
2022/03/29 11:22:39;;;;;;;23.92;13.02;;;;;;;;;;4892471;28;20167;-75
2022/03/29 11:25:09;;;;;;;26.30;14.45;;;;;;;;;;4897552;28;20149;-75
2022/03/29 11:27:36;;;;;;;22.88;14.07;;;;;;;;;;4894074;28;20030;-76
2022/03/29 11:30:10;;;;;;;24.52;14.45;;;;;;;;;;4893532;28;20034;-75
2022/03/29 11:32:39;;;;;;;24.42;14.85;;;;;;;;;;4899314;28;20034;-76
2022/03/29 11:35:09;;;;;;;24.25;14.48;;;;;;;;;;4902831;28;20042;-74
2022/03/29 11:37:44;;;;;;;27.73;15.75;;;;;;;;;;4908747;28;20134;-76
2022/03/29 11:40:12;;;;;;;25.48;14.75;;;;;;;;;;4921913;28;20042;-73
2022/03/29 11:42:55;;;;;;;24.23;14.35;;;;;;;;;;4906693;28;20045;-74
2022/03/29 11:45:23;;;;;;;25.80;14.90;;;;;;;;;;4914168;28;20046;-74
2022/03/29 11:47:58;;;;;;;31.27;14.85;;;;;;;;;;4913289;28;20037;-74
2022/03/29 11:50:35;;;;;;;29.73;15.50;;;;;;;;;;4911849;28;20113;-74
2022/03/29 11:53:14;;;;;;;31.35;14.85;;;;;;;;;;4902067;28;20033;-74
2022/03/29 11:55:39;;;;;;;26.55;14.27;;;;;;;;;;4905187;28;20034;-73
2022/03/29 11:58:22;;;;;;;25.58;14.15;;;;;;;;;;4905272;28;20038;-74
2022/03/29 12:00:47;;;;;;;22.88;14.43;;;;;;;;;;4902823;28;20140;-74
2022/03/29 12:03:13;;;;;;;23.77;14.70;;;;;;;;;;4909566;28;20681;-75
2022/03/29 12:05:41;;;;;;;27.48;14.95;;;;;;;;;;4910785;28;20069;-74
2022/03/29 12:08:08;;;;;;;28.38;14.68;;;;;;;;;;4904046;28;21177;-75
2022/03/29 12:10:37;;;;;;;25.90;14.65;;;;;;;;;;4899235;28;21547;-75
2022/03/29 12:13:03;;;;;;;23.80;14.48;;;;;;;;;;4892398;28;20716;-74
2022/03/29 12:15:29;;;;;;;29.83;15.52;;;;;;;;;;4894631;28;20077;-74
2022/03/29 12:18:40;;;;;;;30.70;14.00;;;;;;;;;;4898199;28;20045;-74
2022/03/29 12:20:43;;;;;;;29.80;12.65;;;;;;;;;;4901519;28;20684;-75
2022/03/29 12:23:23;;;;;;;41.05;12.57;;;;;;;;;;4913584;28;20164;-74
2022/03/29 12:25:50;;;;;;;31.77;13.55;;;;;;;;;;4901777;28;20346;-75
2022/03/29 12:28:19;;;;;;;30.75;12.77;;;;;;;;;;4897536;28;20097;-75
2022/03/29 12:40:09;;;;;;;34.97;10.85;;;;;;;;;;1464878;26;20630;-76
2022/03/29 12:42:35;;;;;;;45.30;11.65;;;;;;;;;;4977990;28;20057;-75
2022/03/29 12:45:03;;;;;;;45.03;11.90;;;;;;;;;;4980796;28;20069;-75
2022/03/29 12:47:32;;;;;;;33.70;12.18;;;;;;;;;;4980819;28;20388;-74
2022/03/29 12:49:57;;;;;;;35.43;14.13;;;;;;;;;;4979725;28;20054;-75
2022/03/29 12:52:25;;;;;;;36.30;11.23;;;;;;;;;;4977680;28;20190;-77
2022/03/29 12:54:58;;;;;;;35.08;11.85;;;;;;;;;;4979751;28;20030;-74
2022/03/29 12:57:38;;;;;;;43.45;11.32;;;;;;;;;;4980067;28;20476;-74
2022/03/29 13:00:10;;;;;;;44.63;13.25;;;;;;;;;;4977286;28;20152;-75
2022/03/29 13:02:40;;;;;;;29.23;12.77;;;;;;;;;;4978192;28;20026;-74
2022/03/29 13:05:09;;;;;;;31.30;13.38;;;;;;;;;;4980804;28;20023;-75
2022/03/29 13:07:53;;;;;;;23.13;12.63;;;;;;;;;;4985708;28;20101;-75
2022/03/29 13:10:24;;;;;;;28.38;13.95;;;;;;;;;;4976892;28;20359;-75
2022/03/29 13:13:12;;;;;;;24.92;12.60;;;;;;;;;;4978745;28;20028;-75
2022/03/29 13:15:55;;;;;;;25.45;13.55;;;;;;;;;;4975967;28;20039;-76
2022/03/29 13:18:30;;;;;;;27.77;14.40;;;;;;;;;;4980838;28;20022;-76
2022/03/29 13:21:44;;;;;;;28.60;14.55;;;;;;;;;;4978278;28;20129;-75
2022/03/29 13:24:15;;;;;;;29.02;13.35;;;;;;;;;;4982139;28;20038;-75
2022/03/29 13:26:43;;;;;;;27.08;12.73;;;;;;;;;;4977461;28;20132;-74
2022/03/29 13:29:14;;;;;;;29.73;14.52;;;;;;;;;;4980283;28;20538;-75
2022/03/29 13:31:42;;;;;;;24.77;13.02;;;;;;;;;;4977838;28;20118;-75
2022/03/29 13:34:12;;;;;;;24.88;13.80;;;;;;;;;;4975503;28;20118;-75
2022/03/29 13:36:41;;;;;;;34.17;13.88;;;;;;;;;;4978948;28;20030;-75
2022/03/29 13:39:09;;;;;;;26.00;13.70;;;;;;;;;;4976345;28;20570;-75
2022/03/29 13:41:37;;;;;;;27.95;13.77;;;;;;;;;;4976697;28;20038;-74
2022/03/29 13:44:05;;;;;;;30.55;13.27;;;;;;;;;;4976515;28;20447;-74
2022/03/29 13:46:31;;;;;;;27.85;13.88;;;;;;;;;;4974757;28;20493;-74
2022/03/29 13:48:56;;;;;;;31.10;13.63;;;;;;;;;;4979650;28;20038;-74
2022/03/29 13:51:22;;;;;;;22.10;13.00;;;;;;;;;;4982375;28;20080;-77
2022/03/29 13:53:48;;;;;;;28.80;14.55;;;;;;;;;;4984229;28;20149;-73
2022/03/29 13:56:15;;;;;;;29.38;12.68;;;;;;;;;;4976427;28;20121;-76
2022/03/29 13:58:43;;;;;;;30.92;13.05;;;;;;;;;;4975611;28;20031;-74
2022/03/29 14:01:09;;;;;;;30.58;13.05;;;;;;;;;;4976057;28;20054;-74
2022/03/29 14:03:35;;;;;;;25.60;12.57;;;;;;;;;;4977743;28;20030;-74
2022/03/29 14:06:03;;;;;;;32.00;13.32;;;;;;;;;;4977370;28;20068;-75
2022/03/29 14:08:32;;;;;;;30.40;12.38;;;;;;;;;;4977707;28;20117;-75
2022/03/29 14:10:59;;;;;;;38.60;13.43;;;;;;;;;;4980590;28;20041;-74
2022/03/29 14:13:31;;;;;;;31.17;12.27;;;;;;;;;;4982017;28;20114;-75
2022/03/29 14:16:01;;;;;;;38.83;13.30;;;;;;;;;;4981513;28;20065;-75
2022/03/29 14:18:27;;;;;;;29.35;12.73;;;;;;;;;;4983353;28;20062;-74
2022/03/29 14:20:54;;;;;;;28.05;13.13;;;;;;;;;;4982558;28;20035;-75
2022/03/29 14:23:22;;;;;;;38.70;13.35;;;;;;;;;;4980377;28;20040;-75
2022/03/29 14:25:50;;;;;;;33.53;13.15;;;;;;;;;;4982955;28;20027;-75
2022/03/29 14:28:17;;;;;;;40.40;13.10;;;;;;;;;;4983141;28;20061;-75
2022/03/29 14:30:44;;;;;;;33.70;13.95;;;;;;;;;;4988717;28;20502;-74
2022/03/29 14:33:11;;;;;;;28.63;11.50;;;;;;;;;;4983449;28;20506;-74
2022/03/29 14:35:36;;;;;;;28.45;10.32;;;;;;;;;;4980759;28;20350;-75
2022/03/29 14:38:05;;;;;;;32.50;12.70;;;;;;;;;;4984093;28;20050;-75
2022/03/29 14:40:31;;;;;;;34.50;11.50;;;;;;;;;;4978031;28;20050;-77
2022/03/29 14:42:58;;;;;;;37.35;12.68;;;;;;;;;;4984899;28;20038;-77
2022/03/29 14:45:24;;;;;;;35.45;13.30;;;;;;;;;;4979751;28;20035;-77
2022/03/29 14:47:50;;;;;;;47.42;15.95;;;;;;;;;;4982547;28;20023;-77